AirNav   TITAN Aviation Fuels
 
 1116 users online  

0NC8 Flying S Ranch Airport
Cleveland, North Carolina, USA

GOING TO CLEVELAND?


FAA INFORMATION EFFECTIVE 01 DECEMBER 2022

Location

FAA Identifier: 0NC8
Lat/Long: 35-45-20.5030N 080-44-07.2480W
35-45.341717N 080-44.120800W
35.7556953,-80.7353467
(estimated)
Elevation: 830 ft. / 253 m (estimated)
Variation: 05W (1985)
From city: 4 miles NW of CLEVELAND, NC
Time zone: UTC -5 (UTC -4 during Daylight Saving Time)
Zip code: 27013

Airport Operations

Airport use: Private use. Permission required prior to landing
Control tower: no
ARTCC: ATLANTA CENTER
FSS: RALEIGH FLIGHT SERVICE STATION
Attendance: UNATNDD
Wind indicator: yes
Segmented circle: no

Airport Communications

WX AWOS-3 at SVH (11 nm W): 119.225 (704-873-1978)
WX AWOS-3 at RUQ (12 nm SE): 118.175 (704-637-6197)

Nearby radio navigation aids

VOR radial/distance  VOR name  Freq  Var
BZMr111/25.5BARRETTS MOUNTAIN VOR/DME113.7506W
CLTr022/35.5CHARLOTTE VOR/DME115.0005W

 
NDB name  Hdg/Dist  Freq  Var  ID
ROVDY282/12.027506WRU .-. ..-
STONIA037/39.726006WGHJ --. .... .---

Airport Services

Runway Information

Runway 3/21

Dimensions: 2300 x 100 ft. / 701 x 30 m
Surface: turf
RUNWAY 3  RUNWAY 21
Traffic pattern: leftleft

Airport Ownership and Management from official FAA records

Ownership: Privately-owned
Owner: SHAVER WOOD PRODUCTS
14440 STATESVILLE RD
CLEVELAND, NC 27013-8791
Phone 704-278-9291
Manager: RICHARD W. SHAVER
14440 STATESVILLE RD
CLEVELAND, NC 27013-8791
Phone (704) 928-5893

Airport Operational Statistics

Aircraft based on the field: 1
Single engine airplanes: 1
    

Additional Remarks

FOR CD CTC CHARLOTTE APCH AT 704-359-0241.

Instrument Procedures

There are no published instrument procedures at 0NC8.

Some nearby airports with instrument procedures:

KSVH - Statesville Regional Airport (11 nm W)
14A - Lake Norman Airpark (12 nm SW)
KRUQ - Mid-Carolina Regional Airport (12 nm SE)
8A7 - Twin Lakes Airport (17 nm NE)
KEXX - Davidson County Airport (21 nm E)
 
Loc | Ops | Rwys | IFR | FBO | Links
Com | Nav | Svcs | Stats | Notes
Area around 0NC8 (Flying S Ranch Airport)
 
Road maps at: MapQuest Bing Google
 
Aerial photo
No photo
 
Sectional chart

 
Airport distance calculator
Flying to Flying S Ranch Airport? Find the distance to fly.

From to 0NC8

Sunrise and sunset
Times for 06-Dec-2022
 Local
(UTC-5)
 Zulu
(UTC)
Morning civil twilight06:5211:52
Sunrise07:2012:20
Sunset17:0822:08
Evening civil twilight17:3622:36

Current date and time
Zulu (UTC)  07-Dec-2022 02:53:19
Local (UTC-5)  06-Dec-2022 21:53:19
 
METAR
KSVH 
10nm W 
070235Z AUTO 00000KT 1/4SM FG OVC002 08/08 A3025 RMK AO2 T00830080
KRUQ 
12nm SE 
070235Z AUTO 00000KT 1/2SM FG OVC002 09/09 A3026 RMK AO2 T00870085
TAF
KHKY 
32nm W 
070227Z 0702/0724 VRB02KT 2SM -RADZ BR OVC002 FM070400 00000KT 1/4SM -DZ FG VCSH OVC001 FM071400 VRB02KT 1/2SM -RADZ OVC002 FM071700 21004KT 2SM BR VCSH OVC006 FM072200 23003KT 4SM BR OVC008
KINT 
34nm NE 
061728Z 0618/0718 30003KT 1 1/2SM -RA BR OVC003 FM062200 VRB02KT 1 1/2SM BR OVC003 FM070400 VRB02KT 1/2SM FG OVC002
KCLT 
34nm S 
070153Z 0702/0806 VRB03KT 1/2SM -DZ FG OVC002 FM070400 VRB02KT 1/4SM -RADZ FG OVC001 FM071600 21004KT 1SM -DZ BR OVC003 FM071800 23005KT 5SM BR OVC006 FM072300 23004KT 6SM BR SCT006 BKN012
NOTAMs
Click for the latest NOTAMs
NOTAMs are issued by the DoD/FAA and will open in a separate window not controlled by AirNav.

 

 
 

Would you like to see your business listed on this page?

 If your business provides an interesting product or service to pilots, flight crews, aircraft, or users of the Flying S Ranch Airport, you should consider listing it here.  To start the listing process, click on the button below
 
Add a business
 

Other Pages about Flying S Ranch Airport

Update a link
 
Copyright © AirNav, LLC. All rights reserved. Privacy Policy  Contact